sensor_id;sensor_type;location;lat;lon;timestamp;temperature;humidity
11922;DHT22;6021;51.182;3.160;2023-02-01T00:01:25;5.70;99.90
11922;DHT22;6021;51.182;3.160;2023-02-01T00:03:53;5.50;99.90
11922;DHT22;6021;51.182;3.160;2023-02-01T00:06:22;5.70;99.90
11922;DHT22;6021;51.182;3.160;2023-02-01T00:08:52;5.70;99.90
11922;DHT22;6021;51.182;3.160;2023-02-01T00:11:22;5.90;99.90
11922;DHT22;6021;51.182;3.160;2023-02-01T00:13:52;6.10;99.90
11922;DHT22;6021;51.182;3.160;2023-02-01T00:16:26;6.00;99.90
11922;DHT22;6021;51.182;3.160;2023-02-01T00:19:00;6.00;99.90
11922;DHT22;6021;51.182;3.160;2023-02-01T00:21:29;5.80;99.90
11922;DHT22;6021;51.182;3.160;2023-02-01T00:23:58;5.90;99.90
11922;DHT22;6021;51.182;3.160;2023-02-01T00:26:32;5.50;99.90
11922;DHT22;6021;51.182;3.160;2023-02-01T00:29:03;5.40;99.90
11922;DHT22;6021;51.182;3.160;2023-02-01T00:31:32;5.30;99.90
11922;DHT22;6021;51.182;3.160;2023-02-01T00:34:00;5.50;99.90
11922;DHT22;6021;51.182;3.160;2023-02-01T00:36:29;5.30;99.90
11922;DHT22;6021;51.182;3.160;2023-02-01T00:38:58;5.70;99.90
11922;DHT22;6021;51.182;3.160;2023-02-01T00:41:26;5.60;99.90
11922;DHT22;6021;51.182;3.160;2023-02-01T00:43:55;5.70;99.90
11922;DHT22;6021;51.182;3.160;2023-02-01T00:46:23;5.60;99.90
11922;DHT22;6021;51.182;3.160;2023-02-01T00:48:53;5.90;99.90
11922;DHT22;6021;51.182;3.160;2023-02-01T00:51:25;5.50;99.90
11922;DHT22;6021;51.182;3.160;2023-02-01T00:53:53;5.60;99.90
11922;DHT22;6021;51.182;3.160;2023-02-01T00:56:22;5.60;99.90
11922;DHT22;6021;51.182;3.160;2023-02-01T00:58:51;5.70;99.90
11922;DHT22;6021;51.182;3.160;2023-02-01T01:01:24;5.70;99.90
11922;DHT22;6021;51.182;3.160;2023-02-01T01:03:57;6.00;99.90
11922;DHT22;6021;51.182;3.160;2023-02-01T01:06:33;5.70;99.90
11922;DHT22;6021;51.182;3.160;2023-02-01T01:08:59;5.80;99.90
11922;DHT22;6021;51.182;3.160;2023-02-01T01:11:30;5.80;99.90
11922;DHT22;6021;51.182;3.160;2023-02-01T01:13:59;5.80;99.90
11922;DHT22;6021;51.182;3.160;2023-02-01T01:16:29;5.80;99.90
11922;DHT22;6021;51.182;3.160;2023-02-01T01:18:58;5.80;99.90
11922;DHT22;6021;51.182;3.160;2023-02-01T01:21:27;5.80;99.90
11922;DHT22;6021;51.182;3.160;2023-02-01T01:23:55;6.30;99.90
11922;DHT22;6021;51.182;3.160;2023-02-01T01:26:26;6.00;99.90
11922;DHT22;6021;51.182;3.160;2023-02-01T01:28:56;6.10;99.90
11922;DHT22;6021;51.182;3.160;2023-02-01T01:31:25;6.20;99.90
11922;DHT22;6021;51.182;3.160;2023-02-01T01:33:55;6.30;99.90
11922;DHT22;6021;51.182;3.160;2023-02-01T01:36:25;6.50;99.90
11922;DHT22;6021;51.182;3.160;2023-02-01T01:38:53;6.30;99.90
11922;DHT22;6021;51.182;3.160;2023-02-01T01:41:28;6.70;99.90
11922;DHT22;6021;51.182;3.160;2023-02-01T01:46:36;6.80;99.90
11922;DHT22;6021;51.182;3.160;2023-02-01T01:49:12;6.60;99.90
11922;DHT22;6021;51.182;3.160;2023-02-01T01:52:00;6.70;99.90
11922;DHT22;6021;51.182;3.160;2023-02-01T01:54:34;6.30;99.90
11922;DHT22;6021;51.182;3.160;2023-02-01T01:57:08;6.50;99.90
11922;DHT22;6021;51.182;3.160;2023-02-01T01:59:37;6.30;99.90
11922;DHT22;6021;51.182;3.160;2023-02-01T02:02:07;6.30;99.90
11922;DHT22;6021;51.182;3.160;2023-02-01T02:04:36;6.40;99.90
11922;DHT22;6021;51.182;3.160;2023-02-01T02:07:21;6.30;99.90
11922;DHT22;6021;51.182;3.160;2023-02-01T02:09:45;6.50;99.90
11922;DHT22;6021;51.182;3.160;2023-02-01T02:12:14;6.30;99.90
11922;DHT22;6021;51.182;3.160;2023-02-01T02:14:42;6.30;99.90
11922;DHT22;6021;51.182;3.160;2023-02-01T02:17:40;6.40;99.90
11922;DHT22;6021;51.182;3.160;2023-02-01T02:23:05;6.20;99.90
11922;DHT22;6021;51.182;3.160;2023-02-01T02:25:44;6.30;97.70
11922;DHT22;6021;51.182;3.160;2023-02-01T02:28:49;6.30;77.20
11922;DHT22;6021;51.182;3.160;2023-02-01T02:39:35;6.30;79.70
11922;DHT22;6021;51.182;3.160;2023-02-01T02:42:12;6.40;73.00
11922;DHT22;6021;51.182;3.160;2023-02-01T02:45:09;6.30;71.30
11922;DHT22;6021;51.182;3.160;2023-02-01T02:48:13;6.30;75.70
11922;DHT22;6021;51.182;3.160;2023-02-01T02:50:49;6.40;81.90
11922;DHT22;6021;51.182;3.160;2023-02-01T02:56:35;6.60;48.60
11922;DHT22;6021;51.182;3.160;2023-02-01T02:59:24;6.60;39.80
11922;DHT22;6021;51.182;3.160;2023-02-01T03:02:15;6.40;50.60
11922;DHT22;6021;51.182;3.160;2023-02-01T03:05:01;6.70;55.70
11922;DHT22;6021;51.182;3.160;2023-02-01T03:12:58;6.60;54.50
11922;DHT22;6021;51.182;3.160;2023-02-01T03:15:31;6.70;51.40
11922;DHT22;6021;51.182;3.160;2023-02-01T03:17:58;6.80;51.80
11922;DHT22;6021;51.182;3.160;2023-02-01T03:20:28;6.60;48.40
11922;DHT22;6021;51.182;3.160;2023-02-01T03:22:59;6.60;48.20
11922;DHT22;6021;51.182;3.160;2023-02-01T03:25:29;6.50;48.30
11922;DHT22;6021;51.182;3.160;2023-02-01T03:28:07;6.50;51.70
11922;DHT22;6021;51.182;3.160;2023-02-01T03:30:43;6.60;42.10
11922;DHT22;6021;51.182;3.160;2023-02-01T03:33:17;6.60;35.00
11922;DHT22;6021;51.182;3.160;2023-02-01T03:36:08;6.60;34.80
11922;DHT22;6021;51.182;3.160;2023-02-01T03:38:51;6.90;32.80
11922;DHT22;6021;51.182;3.160;2023-02-01T03:41:40;6.60;29.40
11922;DHT22;6021;51.182;3.160;2023-02-01T03:47:11;6.60;39.80
11922;DHT22;6021;51.182;3.160;2023-02-01T03:50:00;6.50;44.90
11922;DHT22;6021;51.182;3.160;2023-02-01T03:52:37;6.30;42.00
11922;DHT22;6021;51.182;3.160;2023-02-01T03:55:04;6.50;42.50
11922;DHT22;6021;51.182;3.160;2023-02-01T03:57:36;6.30;47.00
11922;DHT22;6021;51.182;3.160;2023-02-01T04:00:25;6.30;66.90
11922;DHT22;6021;51.182;3.160;2023-02-01T04:02:39;6.60;55.60
11922;DHT22;6021;51.182;3.160;2023-02-01T04:05:09;6.30;56.70
11922;DHT22;6021;51.182;3.160;2023-02-01T04:07:37;6.30;66.10
11922;DHT22;6021;51.182;3.160;2023-02-01T04:10:06;6.20;66.30
11922;DHT22;6021;51.182;3.160;2023-02-01T04:12:34;6.30;70.90
11922;DHT22;6021;51.182;3.160;2023-02-01T04:15:03;6.50;71.50
11922;DHT22;6021;51.182;3.160;2023-02-01T04:17:32;6.10;74.20
11922;DHT22;6021;51.182;3.160;2023-02-01T04:20:00;6.40;75.50
11922;DHT22;6021;51.182;3.160;2023-02-01T04:22:29;6.50;54.40
11922;DHT22;6021;51.182;3.160;2023-02-01T04:24:57;6.70;46.10
11922;DHT22;6021;51.182;3.160;2023-02-01T04:27:26;6.30;51.30
11922;DHT22;6021;51.182;3.160;2023-02-01T04:29:54;6.30;55.10
11922;DHT22;6021;51.182;3.160;2023-02-01T04:32:23;6.30;47.50
11922;DHT22;6021;51.182;3.160;2023-02-01T04:34:51;6.30;56.00
11922;DHT22;6021;51.182;3.160;2023-02-01T04:37:20;6.40;53.70
11922;DHT22;6021;51.182;3.160;2023-02-01T04:39:48;6.50;56.60
11922;DHT22;6021;51.182;3.160;2023-02-01T04:42:17;6.50;48.20
11922;DHT22;6021;51.182;3.160;2023-02-01T04:44:45;6.40;50.70
11922;DHT22;6021;51.182;3.160;2023-02-01T04:47:13;6.70;45.60
11922;DHT22;6021;51.182;3.160;2023-02-01T04:49:43;6.60;42.80
11922;DHT22;6021;51.182;3.160;2023-02-01T04:52:11;6.40;50.70
11922;DHT22;6021;51.182;3.160;2023-02-01T04:54:39;6.50;55.40
11922;DHT22;6021;51.182;3.160;2023-02-01T04:57:08;6.30;54.90
11922;DHT22;6021;51.182;3.160;2023-02-01T04:59:36;6.30;57.30
11922;DHT22;6021;51.182;3.160;2023-02-01T05:02:04;6.50;57.90
11922;DHT22;6021;51.182;3.160;2023-02-01T05:04:33;6.50;49.10
11922;DHT22;6021;51.182;3.160;2023-02-01T05:07:01;6.50;44.30
11922;DHT22;6021;51.182;3.160;2023-02-01T05:09:29;6.50;42.40
11922;DHT22;6021;51.182;3.160;2023-02-01T05:11:58;6.50;49.20
11922;DHT22;6021;51.182;3.160;2023-02-01T05:14:44;6.50;48.40
11922;DHT22;6021;51.182;3.160;2023-02-01T05:17:12;6.60;47.20
11922;DHT22;6021;51.182;3.160;2023-02-01T05:19:41;6.80;43.20
11922;DHT22;6021;51.182;3.160;2023-02-01T05:22:09;6.70;48.00
11922;DHT22;6021;51.182;3.160;2023-02-01T05:24:37;6.30;60.50
11922;DHT22;6021;51.182;3.160;2023-02-01T05:27:06;6.60;58.80
11922;DHT22;6021;51.182;3.160;2023-02-01T05:29:34;6.80;50.10
11922;DHT22;6021;51.182;3.160;2023-02-01T05:32:02;6.80;50.20
11922;DHT22;6021;51.182;3.160;2023-02-01T05:34:31;6.50;50.60
11922;DHT22;6021;51.182;3.160;2023-02-01T05:37:02;6.70;52.40
11922;DHT22;6021;51.182;3.160;2023-02-01T05:39:30;6.70;56.00
11922;DHT22;6021;51.182;3.160;2023-02-01T05:41:58;6.50;55.10
11922;DHT22;6021;51.182;3.160;2023-02-01T05:44:29;6.60;52.40
11922;DHT22;6021;51.182;3.160;2023-02-01T05:46:57;6.60;59.10
11922;DHT22;6021;51.182;3.160;2023-02-01T05:49:25;6.50;72.90
11922;DHT22;6021;51.182;3.160;2023-02-01T05:51:54;6.30;63.80
11922;DHT22;6021;51.182;3.160;2023-02-01T05:54:22;6.30;67.50
11922;DHT22;6021;51.182;3.160;2023-02-01T05:56:50;6.30;71.70
11922;DHT22;6021;51.182;3.160;2023-02-01T05:59:19;6.40;70.40
11922;DHT22;6021;51.182;3.160;2023-02-01T06:01:47;6.40;73.60
11922;DHT22;6021;51.182;3.160;2023-02-01T06:04:16;6.30;80.40
11922;DHT22;6021;51.182;3.160;2023-02-01T06:06:44;6.30;58.70
11922;DHT22;6021;51.182;3.160;2023-02-01T06:09:12;6.50;58.70
11922;DHT22;6021;51.182;3.160;2023-02-01T06:11:41;6.30;66.80
11922;DHT22;6021;51.182;3.160;2023-02-01T06:14:11;6.70;69.00
11922;DHT22;6021;51.182;3.160;2023-02-01T06:16:39;6.40;69.00
11922;DHT22;6021;51.182;3.160;2023-02-01T06:19:08;6.40;64.60
11922;DHT22;6021;51.182;3.160;2023-02-01T06:21:37;6.30;71.20
11922;DHT22;6021;51.182;3.160;2023-02-01T06:24:06;6.30;66.00
11922;DHT22;6021;51.182;3.160;2023-02-01T06:26:34;6.30;81.10
11922;DHT22;6021;51.182;3.160;2023-02-01T06:29:03;6.20;73.00
11922;DHT22;6021;51.182;3.160;2023-02-01T06:31:35;6.60;82.20
11922;DHT22;6021;51.182;3.160;2023-02-01T06:34:03;6.50;70.80
11922;DHT22;6021;51.182;3.160;2023-02-01T06:36:31;6.70;63.50
11922;DHT22;6021;51.182;3.160;2023-02-01T06:39:00;6.50;70.40
11922;DHT22;6021;51.182;3.160;2023-02-01T06:41:28;6.30;70.40
11922;DHT22;6021;51.182;3.160;2023-02-01T06:43:57;6.60;58.20
11922;DHT22;6021;51.182;3.160;2023-02-01T06:46:29;6.60;42.90
11922;DHT22;6021;51.182;3.160;2023-02-01T06:48:57;6.70;39.50
11922;DHT22;6021;51.182;3.160;2023-02-01T06:51:26;6.60;48.30
11922;DHT22;6021;51.182;3.160;2023-02-01T06:53:56;6.30;60.10
11922;DHT22;6021;51.182;3.160;2023-02-01T06:56:25;6.60;63.50
11922;DHT22;6021;51.182;3.160;2023-02-01T06:58:54;6.70;63.20
11922;DHT22;6021;51.182;3.160;2023-02-01T07:01:22;6.60;77.50
11922;DHT22;6021;51.182;3.160;2023-02-01T07:03:51;6.50;71.60
11922;DHT22;6021;51.182;3.160;2023-02-01T07:06:19;6.60;77.20
11922;DHT22;6021;51.182;3.160;2023-02-01T07:08:48;6.80;74.10
11922;DHT22;6021;51.182;3.160;2023-02-01T07:11:18;6.80;76.90
11922;DHT22;6021;51.182;3.160;2023-02-01T07:13:50;6.60;73.70
11922;DHT22;6021;51.182;3.160;2023-02-01T07:16:19;6.60;77.70
11922;DHT22;6021;51.182;3.160;2023-02-01T07:18:49;6.60;81.00
11922;DHT22;6021;51.182;3.160;2023-02-01T07:21:18;6.80;78.60
11922;DHT22;6021;51.182;3.160;2023-02-01T07:23:47;6.60;83.60
11922;DHT22;6021;51.182;3.160;2023-02-01T07:26:16;6.80;73.10
11922;DHT22;6021;51.182;3.160;2023-02-01T07:28:44;6.80;69.70
11922;DHT22;6021;51.182;3.160;2023-02-01T07:31:18;6.80;71.20
11922;DHT22;6021;51.182;3.160;2023-02-01T07:33:49;6.90;65.80
11922;DHT22;6021;51.182;3.160;2023-02-01T07:36:22;7.30;64.70
11922;DHT22;6021;51.182;3.160;2023-02-01T07:38:50;7.10;61.90
11922;DHT22;6021;51.182;3.160;2023-02-01T07:41:19;7.10;54.50
11922;DHT22;6021;51.182;3.160;2023-02-01T07:43:47;7.10;48.60
11922;DHT22;6021;51.182;3.160;2023-02-01T07:46:17;7.10;44.00
11922;DHT22;6021;51.182;3.160;2023-02-01T07:48:46;7.40;42.40
11922;DHT22;6021;51.182;3.160;2023-02-01T07:51:16;7.20;39.10
11922;DHT22;6021;51.182;3.160;2023-02-01T07:53:45;7.10;36.00
11922;DHT22;6021;51.182;3.160;2023-02-01T07:56:18;7.60;32.90
11922;DHT22;6021;51.182;3.160;2023-02-01T07:58:51;7.40;24.10
11922;DHT22;6021;51.182;3.160;2023-02-01T08:01:23;7.10;24.20
11922;DHT22;6021;51.182;3.160;2023-02-01T08:03:57;7.20;23.30
11922;DHT22;6021;51.182;3.160;2023-02-01T08:06:31;7.40;19.60
11922;DHT22;6021;51.182;3.160;2023-02-01T08:08:59;7.40;16.10
11922;DHT22;6021;51.182;3.160;2023-02-01T08:11:28;7.30;13.90
11922;DHT22;6021;51.182;3.160;2023-02-01T08:13:58;7.70;11.40
11922;DHT22;6021;51.182;3.160;2023-02-01T08:16:26;7.40;10.00
11922;DHT22;6021;51.182;3.160;2023-02-01T08:18:55;7.60;12.60
11922;DHT22;6021;51.182;3.160;2023-02-01T08:21:26;7.40;13.30
11922;DHT22;6021;51.182;3.160;2023-02-01T08:23:56;7.40;10.60
11922;DHT22;6021;51.182;3.160;2023-02-01T08:26:26;7.60;10.60
11922;DHT22;6021;51.182;3.160;2023-02-01T08:28:57;7.80;3.60
11922;DHT22;6021;51.182;3.160;2023-02-01T08:31:28;8.00;1.00
11922;DHT22;6021;51.182;3.160;2023-02-01T08:34:00;7.70;1.00
11922;DHT22;6021;51.182;3.160;2023-02-01T08:36:30;7.80;1.00
11922;DHT22;6021;51.182;3.160;2023-02-01T08:39:00;7.90;1.00
11922;DHT22;6021;51.182;3.160;2023-02-01T08:41:30;7.50;1.00
11922;DHT22;6021;51.182;3.160;2023-02-01T08:43:59;7.90;1.00
11922;DHT22;6021;51.182;3.160;2023-02-01T08:46:28;7.80;1.00
11922;DHT22;6021;51.182;3.160;2023-02-01T08:48:57;8.00;1.00
11922;DHT22;6021;51.182;3.160;2023-02-01T08:51:25;7.90;1.00
11922;DHT22;6021;51.182;3.160;2023-02-01T08:53:53;8.00;1.00
11922;DHT22;6021;51.182;3.160;2023-02-01T08:56:22;8.00;1.00
11922;DHT22;6021;51.182;3.160;2023-02-01T08:58:50;8.20;1.00
11922;DHT22;6021;51.182;3.160;2023-02-01T09:01:20;8.30;1.00
11922;DHT22;6021;51.182;3.160;2023-02-01T09:03:49;8.20;1.00
11922;DHT22;6021;51.182;3.160;2023-02-01T09:06:17;8.20;1.00
11922;DHT22;6021;51.182;3.160;2023-02-01T09:08:45;8.30;1.00
11922;DHT22;6021;51.182;3.160;2023-02-01T09:11:16;8.50;1.00
11922;DHT22;6021;51.182;3.160;2023-02-01T09:13:47;8.30;1.00
11922;DHT22;6021;51.182;3.160;2023-02-01T09:16:17;8.40;1.00
11922;DHT22;6021;51.182;3.160;2023-02-01T09:18:47;8.50;1.00
11922;DHT22;6021;51.182;3.160;2023-02-01T09:21:16;8.50;1.00
11922;DHT22;6021;51.182;3.160;2023-02-01T09:23:44;8.80;1.00
11922;DHT22;6021;51.182;3.160;2023-02-01T09:26:15;8.70;1.00
11922;DHT22;6021;51.182;3.160;2023-02-01T09:28:43;8.90;1.00
11922;DHT22;6021;51.182;3.160;2023-02-01T09:31:11;8.80;1.00
11922;DHT22;6021;51.182;3.160;2023-02-01T09:33:40;9.10;1.00
11922;DHT22;6021;51.182;3.160;2023-02-01T09:36:08;9.00;1.00
11922;DHT22;6021;51.182;3.160;2023-02-01T09:38:37;9.30;1.00
11922;DHT22;6021;51.182;3.160;2023-02-01T09:44:08;10.20;1.00
11922;DHT22;6021;51.182;3.160;2023-02-01T09:46:36;10.50;1.00
11922;DHT22;6021;51.182;3.160;2023-02-01T09:49:12;10.40;1.00
11922;DHT22;6021;51.182;3.160;2023-02-01T09:51:43;10.30;1.00
11922;DHT22;6021;51.182;3.160;2023-02-01T09:54:17;10.00;1.00
11922;DHT22;6021;51.182;3.160;2023-02-01T10:02:08;10.30;1.00
11922;DHT22;6021;51.182;3.160;2023-02-01T10:04:35;10.50;1.00
11922;DHT22;6021;51.182;3.160;2023-02-01T10:12:52;9.70;1.00
11922;DHT22;6021;51.182;3.160;2023-02-01T10:21:26;9.50;1.00
11922;DHT22;6021;51.182;3.160;2023-02-01T10:26:42;9.50;1.00
11922;DHT22;6021;51.182;3.160;2023-02-01T10:29:18;9.70;1.00
11922;DHT22;6021;51.182;3.160;2023-02-01T10:31:47;9.60;1.00
11922;DHT22;6021;51.182;3.160;2023-02-01T10:34:27;9.70;1.00
11922;DHT22;6021;51.182;3.160;2023-02-01T10:37:18;9.90;1.00
11922;DHT22;6021;51.182;3.160;2023-02-01T10:39:48;10.40;1.00
11922;DHT22;6021;51.182;3.160;2023-02-01T10:42:24;10.50;1.00
11922;DHT22;6021;51.182;3.160;2023-02-01T10:44:56;10.60;1.00
11922;DHT22;6021;51.182;3.160;2023-02-01T10:47:26;10.50;1.00
11922;DHT22;6021;51.182;3.160;2023-02-01T10:50:10;10.60;1.00
11922;DHT22;6021;51.182;3.160;2023-02-01T10:52:44;10.00;1.00
11922;DHT22;6021;51.182;3.160;2023-02-01T10:55:38;10.10;1.00
11922;DHT22;6021;51.182;3.160;2023-02-01T10:58:19;10.20;1.00
11922;DHT22;6021;51.182;3.160;2023-02-01T11:00:51;10.20;1.00
11922;DHT22;6021;51.182;3.160;2023-02-01T11:08:55;10.00;1.00
11922;DHT22;6021;51.182;3.160;2023-02-01T11:11:21;10.00;1.00
11922;DHT22;6021;51.182;3.160;2023-02-01T11:13:55;10.20;1.00
11922;DHT22;6021;51.182;3.160;2023-02-01T11:16:29;10.40;1.00
11922;DHT22;6021;51.182;3.160;2023-02-01T11:18:58;10.50;1.00
11922;DHT22;6021;51.182;3.160;2023-02-01T11:21:28;10.50;1.00
11922;DHT22;6021;51.182;3.160;2023-02-01T11:30:38;10.30;1.00
11922;DHT22;6021;51.182;3.160;2023-02-01T11:32:59;10.60;1.00
11922;DHT22;6021;51.182;3.160;2023-02-01T11:35:36;10.70;1.00
11922;DHT22;6021;51.182;3.160;2023-02-01T11:38:10;10.80;1.00
11922;DHT22;6021;51.182;3.160;2023-02-01T11:40:37;10.80;1.00
11922;DHT22;6021;51.182;3.160;2023-02-01T11:45:57;10.90;1.00
11922;DHT22;6021;51.182;3.160;2023-02-01T11:48:31;10.60;1.00
11922;DHT22;6021;51.182;3.160;2023-02-01T11:51:15;10.80;1.00
11922;DHT22;6021;51.182;3.160;2023-02-01T11:56:39;11.30;1.00
11922;DHT22;6021;51.182;3.160;2023-02-01T11:59:22;11.20;1.00
11922;DHT22;6021;51.182;3.160;2023-02-01T12:08:12;11.50;1.00
11922;DHT22;6021;51.182;3.160;2023-02-01T12:19:11;10.60;1.00
11922;DHT22;6021;51.182;3.160;2023-02-01T12:35:26;9.90;1.00
11922;DHT22;6021;51.182;3.160;2023-02-01T12:43:46;10.10;1.00
11922;DHT22;6021;51.182;3.160;2023-02-01T12:48:58;10.40;1.00
11922;DHT22;6021;51.182;3.160;2023-02-01T12:51:25;10.40;1.00
11922;DHT22;6021;51.182;3.160;2023-02-01T12:53:57;10.90;1.00
11922;DHT22;6021;51.182;3.160;2023-02-01T12:56:30;10.70;1.00
11922;DHT22;6021;51.182;3.160;2023-02-01T12:59:04;10.70;1.00
11922;DHT22;6021;51.182;3.160;2023-02-01T13:01:45;10.70;1.00
11922;DHT22;6021;51.182;3.160;2023-02-01T13:06:52;10.50;1.00
11922;DHT22;6021;51.182;3.160;2023-02-01T13:09:34;10.10;1.00
11922;DHT22;6021;51.182;3.160;2023-02-01T13:12:03;9.80;1.00
11922;DHT22;6021;51.182;3.160;2023-02-01T13:15:00;9.80;1.00
11922;DHT22;6021;51.182;3.160;2023-02-01T13:17:26;9.70;1.00
11922;DHT22;6021;51.182;3.160;2023-02-01T13:20:03;9.80;1.00
11922;DHT22;6021;51.182;3.160;2023-02-01T13:22:43;9.70;1.00
11922;DHT22;6021;51.182;3.160;2023-02-01T13:25:50;9.60;1.00
11922;DHT22;6021;51.182;3.160;2023-02-01T13:27:54;9.50;1.00
11922;DHT22;6021;51.182;3.160;2023-02-01T13:30:27;9.50;1.00
11922;DHT22;6021;51.182;3.160;2023-02-01T13:33:08;9.50;1.00
11922;DHT22;6021;51.182;3.160;2023-02-01T13:41:49;9.70;1.00
11922;DHT22;6021;51.182;3.160;2023-02-01T13:44:13;9.70;1.00
11922;DHT22;6021;51.182;3.160;2023-02-01T13:46:43;9.80;1.00
11922;DHT22;6021;51.182;3.160;2023-02-01T13:49:24;10.00;1.00
11922;DHT22;6021;51.182;3.160;2023-02-01T13:51:54;10.00;1.00
11922;DHT22;6021;51.182;3.160;2023-02-01T13:54:33;10.00;1.00
11922;DHT22;6021;51.182;3.160;2023-02-01T13:57:03;10.10;1.00
11922;DHT22;6021;51.182;3.160;2023-02-01T14:02:45;9.90;1.00
11922;DHT22;6021;51.182;3.160;2023-02-01T14:08:10;9.80;1.00
11922;DHT22;6021;51.182;3.160;2023-02-01T14:10:48;9.70;1.00
11922;DHT22;6021;51.182;3.160;2023-02-01T14:13:39;9.90;1.00
11922;DHT22;6021;51.182;3.160;2023-02-01T14:21:28;9.60;1.00
11922;DHT22;6021;51.182;3.160;2023-02-01T14:24:05;9.60;1.00
11922;DHT22;6021;51.182;3.160;2023-02-01T14:29:40;9.60;1.00
11922;DHT22;6021;51.182;3.160;2023-02-01T14:32:19;9.60;1.00
11922;DHT22;6021;51.182;3.160;2023-02-01T14:34:51;9.50;1.00
11922;DHT22;6021;51.182;3.160;2023-02-01T14:37:31;9.40;1.00
11922;DHT22;6021;51.182;3.160;2023-02-01T14:42:51;9.50;1.00
11922;DHT22;6021;51.182;3.160;2023-02-01T14:50:43;9.40;1.00
11922;DHT22;6021;51.182;3.160;2023-02-01T15:00:57;9.40;1.00
11922;DHT22;6021;51.182;3.160;2023-02-01T15:03:47;9.40;1.00
11922;DHT22;6021;51.182;3.160;2023-02-01T15:09:13;9.30;1.00
11922;DHT22;6021;51.182;3.160;2023-02-01T15:14:26;9.20;1.00
11922;DHT22;6021;51.182;3.160;2023-02-01T15:16:56;9.10;1.00
11922;DHT22;6021;51.182;3.160;2023-02-01T15:19:27;9.30;1.00
11922;DHT22;6021;51.182;3.160;2023-02-01T15:21:57;9.10;1.00
11922;DHT22;6021;51.182;3.160;2023-02-01T15:24:30;9.10;1.00
11922;DHT22;6021;51.182;3.160;2023-02-01T15:27:05;9.10;1.00
11922;DHT22;6021;51.182;3.160;2023-02-01T15:29:33;9.40;1.00
11922;DHT22;6021;51.182;3.160;2023-02-01T15:32:02;9.00;1.00
11922;DHT22;6021;51.182;3.160;2023-02-01T15:34:49;9.20;1.00
11922;DHT22;6021;51.182;3.160;2023-02-01T15:37:21;9.20;1.00
11922;DHT22;6021;51.182;3.160;2023-02-01T15:42:53;9.30;1.00
11922;DHT22;6021;51.182;3.160;2023-02-01T15:45:24;9.30;1.00
11922;DHT22;6021;51.182;3.160;2023-02-01T15:47:56;9.40;1.00
11922;DHT22;6021;51.182;3.160;2023-02-01T15:50:27;9.20;1.00
11922;DHT22;6021;51.182;3.160;2023-02-01T15:52:56;9.40;1.00
11922;DHT22;6021;51.182;3.160;2023-02-01T15:55:39;9.10;1.00
11922;DHT22;6021;51.182;3.160;2023-02-01T15:58:20;9.30;1.00
11922;DHT22;6021;51.182;3.160;2023-02-01T16:00:54;9.10;1.00
11922;DHT22;6021;51.182;3.160;2023-02-01T16:03:37;9.30;1.00
11922;DHT22;6021;51.182;3.160;2023-02-01T16:09:03;9.00;1.00
11922;DHT22;6021;51.182;3.160;2023-02-01T16:11:39;9.20;1.00
11922;DHT22;6021;51.182;3.160;2023-02-01T16:14:02;9.10;1.00
11922;DHT22;6021;51.182;3.160;2023-02-01T16:16:31;9.00;1.00
11922;DHT22;6021;51.182;3.160;2023-02-01T16:18:59;9.10;1.00
11922;DHT22;6021;51.182;3.160;2023-02-01T16:21:29;9.10;1.00
11922;DHT22;6021;51.182;3.160;2023-02-01T16:23:59;9.10;1.70
11922;DHT22;6021;51.182;3.160;2023-02-01T16:26:31;9.00;1.00
11922;DHT22;6021;51.182;3.160;2023-02-01T16:29:00;9.20;2.70
11922;DHT22;6021;51.182;3.160;2023-02-01T16:31:32;9.10;1.00
11922;DHT22;6021;51.182;3.160;2023-02-01T16:34:01;9.30;1.00
11922;DHT22;6021;51.182;3.160;2023-02-01T16:36:36;9.10;1.00
11922;DHT22;6021;51.182;3.160;2023-02-01T16:39:07;9.00;1.00
11922;DHT22;6021;51.182;3.160;2023-02-01T16:41:38;9.10;1.00
11922;DHT22;6021;51.182;3.160;2023-02-01T16:44:06;9.00;1.00
11922;DHT22;6021;51.182;3.160;2023-02-01T16:46:38;9.00;1.00
11922;DHT22;6021;51.182;3.160;2023-02-01T16:49:15;9.10;1.00
11922;DHT22;6021;51.182;3.160;2023-02-01T16:51:39;9.00;1.00
11922;DHT22;6021;51.182;3.160;2023-02-01T16:54:10;9.20;1.00
11922;DHT22;6021;51.182;3.160;2023-02-01T16:56:39;9.10;1.00
11922;DHT22;6021;51.182;3.160;2023-02-01T16:59:09;9.00;1.00
11922;DHT22;6021;51.182;3.160;2023-02-01T17:01:37;9.40;1.00
11922;DHT22;6021;51.182;3.160;2023-02-01T17:04:12;9.40;1.00
11922;DHT22;6021;51.182;3.160;2023-02-01T17:06:39;9.40;1.00
11922;DHT22;6021;51.182;3.160;2023-02-01T17:09:12;9.40;1.00
11922;DHT22;6021;51.182;3.160;2023-02-01T17:11:40;9.10;1.00
11922;DHT22;6021;51.182;3.160;2023-02-01T17:14:19;9.50;1.00
11922;DHT22;6021;51.182;3.160;2023-02-01T17:16:49;9.40;1.00
11922;DHT22;6021;51.182;3.160;2023-02-01T17:19:20;9.20;1.00
11922;DHT22;6021;51.182;3.160;2023-02-01T17:21:52;9.40;1.00
11922;DHT22;6021;51.182;3.160;2023-02-01T17:24:25;9.60;1.00
11922;DHT22;6021;51.182;3.160;2023-02-01T17:26:56;9.50;1.00
11922;DHT22;6021;51.182;3.160;2023-02-01T17:29:24;9.40;1.00
11922;DHT22;6021;51.182;3.160;2023-02-01T17:31:54;9.40;1.00
11922;DHT22;6021;51.182;3.160;2023-02-01T17:34:23;9.30;1.00
11922;DHT22;6021;51.182;3.160;2023-02-01T17:36:52;9.50;1.00
11922;DHT22;6021;51.182;3.160;2023-02-01T17:39:21;9.40;1.00
11922;DHT22;6021;51.182;3.160;2023-02-01T17:42:11;9.30;1.00
11922;DHT22;6021;51.182;3.160;2023-02-01T17:44:39;9.40;1.00
11922;DHT22;6021;51.182;3.160;2023-02-01T17:47:09;9.30;1.00
11922;DHT22;6021;51.182;3.160;2023-02-01T17:49:38;9.50;1.00
11922;DHT22;6021;51.182;3.160;2023-02-01T17:52:09;9.40;1.00
11922;DHT22;6021;51.182;3.160;2023-02-01T17:54:37;9.30;1.00
11922;DHT22;6021;51.182;3.160;2023-02-01T17:57:15;9.40;1.00
11922;DHT22;6021;51.182;3.160;2023-02-01T17:59:41;9.50;1.00
11922;DHT22;6021;51.182;3.160;2023-02-01T18:02:19;9.40;1.00
11922;DHT22;6021;51.182;3.160;2023-02-01T18:04:49;9.30;1.00
11922;DHT22;6021;51.182;3.160;2023-02-01T18:07:17;9.40;1.00
11922;DHT22;6021;51.182;3.160;2023-02-01T18:09:47;9.50;1.00
11922;DHT22;6021;51.182;3.160;2023-02-01T18:12:18;9.50;1.00
11922;DHT22;6021;51.182;3.160;2023-02-01T18:14:48;9.80;1.00
11922;DHT22;6021;51.182;3.160;2023-02-01T18:17:17;9.40;1.00
11922;DHT22;6021;51.182;3.160;2023-02-01T18:19:45;9.40;1.00
11922;DHT22;6021;51.182;3.160;2023-02-01T18:22:18;9.40;1.00
11922;DHT22;6021;51.182;3.160;2023-02-01T18:24:47;9.80;1.00
11922;DHT22;6021;51.182;3.160;2023-02-01T18:27:16;9.40;1.00
11922;DHT22;6021;51.182;3.160;2023-02-01T18:29:45;9.30;1.00
11922;DHT22;6021;51.182;3.160;2023-02-01T18:32:17;9.20;1.00
11922;DHT22;6021;51.182;3.160;2023-02-01T18:34:48;9.10;1.00
11922;DHT22;6021;51.182;3.160;2023-02-01T18:37:17;8.90;1.00
11922;DHT22;6021;51.182;3.160;2023-02-01T18:39:45;9.20;1.00
11922;DHT22;6021;51.182;3.160;2023-02-01T18:42:14;9.10;1.00
11922;DHT22;6021;51.182;3.160;2023-02-01T18:44:42;9.20;1.00
11922;DHT22;6021;51.182;3.160;2023-02-01T18:47:11;9.30;1.00
11922;DHT22;6021;51.182;3.160;2023-02-01T18:49:39;9.20;1.00
11922;DHT22;6021;51.182;3.160;2023-02-01T18:52:10;9.20;1.00
11922;DHT22;6021;51.182;3.160;2023-02-01T18:54:39;9.10;1.00
11922;DHT22;6021;51.182;3.160;2023-02-01T18:57:07;9.30;1.00
11922;DHT22;6021;51.182;3.160;2023-02-01T18:59:37;9.10;1.00
11922;DHT22;6021;51.182;3.160;2023-02-01T19:02:08;9.30;1.00
11922;DHT22;6021;51.182;3.160;2023-02-01T19:04:36;9.20;6.70
11922;DHT22;6021;51.182;3.160;2023-02-01T19:07:11;9.10;1.10
11922;DHT22;6021;51.182;3.160;2023-02-01T19:09:40;9.20;1.00